sensor_id;sensor_type;location;lat;lon;timestamp;P1;durP1;ratioP1;P2;durP2;ratioP2
20014;SDS011;61787;42.022;23.078;2022-07-17T00:00:32;7.93;;;4.78;;
20014;SDS011;61787;42.022;23.078;2022-07-17T00:01:34;5.43;;;4.20;;
20014;SDS011;61787;42.022;23.078;2022-07-17T00:02:35;4.75;;;4.30;;
20014;SDS011;61787;42.022;23.078;2022-07-17T00:03:37;5.97;;;4.53;;
20014;SDS011;61787;42.022;23.078;2022-07-17T00:04:40;5.53;;;4.45;;
20014;SDS011;61787;42.022;23.078;2022-07-17T00:05:42;8.98;;;4.78;;
20014;SDS011;61787;42.022;23.078;2022-07-17T00:06:44;4.95;;;4.45;;
20014;SDS011;61787;42.022;23.078;2022-07-17T00:07:45;5.65;;;4.40;;
20014;SDS011;61787;42.022;23.078;2022-07-17T00:08:49;7.40;;;4.70;;
20014;SDS011;61787;42.022;23.078;2022-07-17T00:09:51;4.90;;;4.32;;
20014;SDS011;61787;42.022;23.078;2022-07-17T00:10:53;5.03;;;4.55;;
20014;SDS011;61787;42.022;23.078;2022-07-17T00:11:55;6.13;;;4.75;;
20014;SDS011;61787;42.022;23.078;2022-07-17T00:12:57;5.97;;;4.63;;
20014;SDS011;61787;42.022;23.078;2022-07-17T00:13:58;5.35;;;4.75;;
20014;SDS011;61787;42.022;23.078;2022-07-17T00:15:01;5.43;;;4.82;;
20014;SDS011;61787;42.022;23.078;2022-07-17T00:16:03;5.18;;;4.70;;
20014;SDS011;61787;42.022;23.078;2022-07-17T00:17:05;5.28;;;4.63;;
20014;SDS011;61787;42.022;23.078;2022-07-17T00:18:06;4.93;;;4.43;;
20014;SDS011;61787;42.022;23.078;2022-07-17T00:19:08;7.20;;;4.68;;
20014;SDS011;61787;42.022;23.078;2022-07-17T00:20:10;6.70;;;4.88;;
20014;SDS011;61787;42.022;23.078;2022-07-17T00:21:13;6.03;;;4.63;;
20014;SDS011;61787;42.022;23.078;2022-07-17T00:22:14;7.47;;;4.60;;
20014;SDS011;61787;42.022;23.078;2022-07-17T00:23:16;9.55;;;4.95;;
20014;SDS011;61787;42.022;23.078;2022-07-17T00:24:18;7.45;;;4.88;;
20014;SDS011;61787;42.022;23.078;2022-07-17T00:25:23;6.78;;;5.00;;
20014;SDS011;61787;42.022;23.078;2022-07-17T00:26:25;5.35;;;4.85;;
20014;SDS011;61787;42.022;23.078;2022-07-17T00:27:27;9.15;;;4.90;;
20014;SDS011;61787;42.022;23.078;2022-07-17T00:28:28;6.22;;;4.82;;
20014;SDS011;61787;42.022;23.078;2022-07-17T00:29:30;6.05;;;4.80;;
20014;SDS011;61787;42.022;23.078;2022-07-17T00:30:32;8.15;;;5.13;;
20014;SDS011;61787;42.022;23.078;2022-07-17T00:31:34;5.78;;;5.18;;
20014;SDS011;61787;42.022;23.078;2022-07-17T00:32:35;5.93;;;4.53;;
20014;SDS011;61787;42.022;23.078;2022-07-17T00:33:37;5.88;;;4.32;;
20014;SDS011;61787;42.022;23.078;2022-07-17T00:34:39;6.85;;;4.32;;
20014;SDS011;61787;42.022;23.078;2022-07-17T00:35:41;4.38;;;3.95;;
20014;SDS011;61787;42.022;23.078;2022-07-17T00:36:42;6.38;;;4.20;;
20014;SDS011;61787;42.022;23.078;2022-07-17T00:37:45;5.15;;;4.45;;
20014;SDS011;61787;42.022;23.078;2022-07-17T00:38:48;6.93;;;4.40;;
20014;SDS011;61787;42.022;23.078;2022-07-17T00:39:50;5.63;;;4.70;;
20014;SDS011;61787;42.022;23.078;2022-07-17T00:40:57;5.38;;;4.35;;
20014;SDS011;61787;42.022;23.078;2022-07-17T00:42:00;6.80;;;4.50;;
20014;SDS011;61787;42.022;23.078;2022-07-17T00:43:01;4.47;;;4.07;;
20014;SDS011;61787;42.022;23.078;2022-07-17T00:44:07;5.13;;;4.63;;
20014;SDS011;61787;42.022;23.078;2022-07-17T00:45:11;6.38;;;4.70;;
20014;SDS011;61787;42.022;23.078;2022-07-17T00:46:14;8.50;;;4.63;;
20014;SDS011;61787;42.022;23.078;2022-07-17T00:47:17;5.55;;;4.43;;
20014;SDS011;61787;42.022;23.078;2022-07-17T00:48:20;8.57;;;4.72;;
20014;SDS011;61787;42.022;23.078;2022-07-17T00:49:22;9.02;;;4.65;;
20014;SDS011;61787;42.022;23.078;2022-07-17T00:50:32;4.97;;;4.57;;
20014;SDS011;61787;42.022;23.078;2022-07-17T00:51:41;7.60;;;4.82;;
20014;SDS011;61787;42.022;23.078;2022-07-17T00:52:42;8.60;;;4.93;;
20014;SDS011;61787;42.022;23.078;2022-07-17T00:53:44;5.68;;;5.05;;
20014;SDS011;61787;42.022;23.078;2022-07-17T00:54:46;7.07;;;5.13;;
20014;SDS011;61787;42.022;23.078;2022-07-17T00:55:55;7.70;;;5.00;;
20014;SDS011;61787;42.022;23.078;2022-07-17T00:56:58;7.40;;;4.68;;
20014;SDS011;61787;42.022;23.078;2022-07-17T00:58:03;5.45;;;4.95;;
20014;SDS011;61787;42.022;23.078;2022-07-17T00:59:05;9.85;;;4.90;;
20014;SDS011;61787;42.022;23.078;2022-07-17T01:00:08;6.63;;;5.05;;
20014;SDS011;61787;42.022;23.078;2022-07-17T01:01:11;5.22;;;4.65;;
20014;SDS011;61787;42.022;23.078;2022-07-17T01:02:13;6.65;;;5.10;;
20014;SDS011;61787;42.022;23.078;2022-07-17T01:03:15;6.32;;;5.03;;
20014;SDS011;61787;42.022;23.078;2022-07-17T01:04:18;8.10;;;5.20;;
20014;SDS011;61787;42.022;23.078;2022-07-17T01:05:21;7.22;;;4.80;;
20014;SDS011;61787;42.022;23.078;2022-07-17T01:06:23;5.57;;;5.07;;
20014;SDS011;61787;42.022;23.078;2022-07-17T01:07:25;6.15;;;4.68;;
20014;SDS011;61787;42.022;23.078;2022-07-17T01:08:26;5.18;;;4.72;;
20014;SDS011;61787;42.022;23.078;2022-07-17T01:09:29;5.45;;;4.95;;
20014;SDS011;61787;42.022;23.078;2022-07-17T01:10:31;7.05;;;4.97;;
20014;SDS011;61787;42.022;23.078;2022-07-17T01:11:33;6.43;;;4.45;;
20014;SDS011;61787;42.022;23.078;2022-07-17T01:12:36;5.22;;;4.65;;
20014;SDS011;61787;42.022;23.078;2022-07-17T01:13:38;5.05;;;4.57;;
20014;SDS011;61787;42.022;23.078;2022-07-17T01:14:40;6.40;;;4.80;;
20014;SDS011;61787;42.022;23.078;2022-07-17T01:15:42;5.43;;;4.88;;
20014;SDS011;61787;42.022;23.078;2022-07-17T01:16:45;6.57;;;5.03;;
20014;SDS011;61787;42.022;23.078;2022-07-17T01:17:47;8.15;;;4.88;;
20014;SDS011;61787;42.022;23.078;2022-07-17T01:18:49;5.50;;;4.95;;
20014;SDS011;61787;42.022;23.078;2022-07-17T01:19:51;6.03;;;5.43;;
20014;SDS011;61787;42.022;23.078;2022-07-17T01:20:53;5.72;;;5.13;;
20014;SDS011;61787;42.022;23.078;2022-07-17T01:21:55;6.13;;;5.10;;
20014;SDS011;61787;42.022;23.078;2022-07-17T01:22:57;5.57;;;5.07;;
20014;SDS011;61787;42.022;23.078;2022-07-17T01:23:59;7.75;;;4.88;;
20014;SDS011;61787;42.022;23.078;2022-07-17T01:25:00;6.72;;;5.30;;
20014;SDS011;61787;42.022;23.078;2022-07-17T01:26:02;7.57;;;4.90;;
20014;SDS011;61787;42.022;23.078;2022-07-17T01:27:04;6.00;;;5.32;;
20014;SDS011;61787;42.022;23.078;2022-07-17T01:28:06;8.55;;;4.72;;
20014;SDS011;61787;42.022;23.078;2022-07-17T01:29:09;6.75;;;5.20;;
20014;SDS011;61787;42.022;23.078;2022-07-17T01:30:12;8.30;;;5.35;;
20014;SDS011;61787;42.022;23.078;2022-07-17T01:31:13;4.93;;;4.38;;
20014;SDS011;61787;42.022;23.078;2022-07-17T01:32:15;5.63;;;4.95;;
20014;SDS011;61787;42.022;23.078;2022-07-17T01:33:17;5.78;;;5.20;;
20014;SDS011;61787;42.022;23.078;2022-07-17T01:34:20;5.30;;;4.90;;
20014;SDS011;61787;42.022;23.078;2022-07-17T01:35:21;7.15;;;5.30;;
20014;SDS011;61787;42.022;23.078;2022-07-17T01:36:23;9.15;;;5.75;;
20014;SDS011;61787;42.022;23.078;2022-07-17T01:37:25;7.05;;;5.18;;
20014;SDS011;61787;42.022;23.078;2022-07-17T01:38:27;7.03;;;5.10;;
20014;SDS011;61787;42.022;23.078;2022-07-17T01:39:29;8.32;;;4.97;;
20014;SDS011;61787;42.022;23.078;2022-07-17T01:40:49;6.20;;;5.57;;
20014;SDS011;61787;42.022;23.078;2022-07-17T01:41:52;6.07;;;5.43;;
20014;SDS011;61787;42.022;23.078;2022-07-17T01:42:54;5.78;;;5.03;;
20014;SDS011;61787;42.022;23.078;2022-07-17T01:43:56;6.95;;;5.25;;
20014;SDS011;61787;42.022;23.078;2022-07-17T01:45:00;6.07;;;4.80;;
20014;SDS011;61787;42.022;23.078;2022-07-17T01:46:02;6.13;;;4.85;;
20014;SDS011;61787;42.022;23.078;2022-07-17T01:47:04;5.40;;;4.47;;
20014;SDS011;61787;42.022;23.078;2022-07-17T01:48:06;4.95;;;4.55;;
20014;SDS011;61787;42.022;23.078;2022-07-17T01:49:07;6.53;;;5.05;;
20014;SDS011;61787;42.022;23.078;2022-07-17T01:50:10;6.22;;;4.95;;
20014;SDS011;61787;42.022;23.078;2022-07-17T01:51:13;9.38;;;6.07;;
20014;SDS011;61787;42.022;23.078;2022-07-17T01:52:14;10.60;;;5.75;;
20014;SDS011;61787;42.022;23.078;2022-07-17T01:53:16;8.05;;;5.63;;
20014;SDS011;61787;42.022;23.078;2022-07-17T01:54:18;10.25;;;5.65;;
20014;SDS011;61787;42.022;23.078;2022-07-17T01:55:19;5.88;;;5.38;;
20014;SDS011;61787;42.022;23.078;2022-07-17T01:56:21;9.05;;;5.80;;
20014;SDS011;61787;42.022;23.078;2022-07-17T01:57:22;9.07;;;5.80;;
20014;SDS011;61787;42.022;23.078;2022-07-17T01:58:25;7.97;;;5.80;;
20014;SDS011;61787;42.022;23.078;2022-07-17T01:59:27;5.80;;;4.68;;
20014;SDS011;61787;42.022;23.078;2022-07-17T02:00:28;7.88;;;5.00;;
20014;SDS011;61787;42.022;23.078;2022-07-17T02:01:30;6.22;;;4.60;;
20014;SDS011;61787;42.022;23.078;2022-07-17T02:02:33;9.30;;;5.70;;
20014;SDS011;61787;42.022;23.078;2022-07-17T02:03:34;7.35;;;5.63;;
20014;SDS011;61787;42.022;23.078;2022-07-17T02:04:37;10.15;;;5.22;;
20014;SDS011;61787;42.022;23.078;2022-07-17T02:05:39;5.80;;;4.97;;
20014;SDS011;61787;42.022;23.078;2022-07-17T02:06:41;7.53;;;5.05;;
20014;SDS011;61787;42.022;23.078;2022-07-17T02:07:43;6.10;;;4.43;;
20014;SDS011;61787;42.022;23.078;2022-07-17T02:08:45;4.97;;;4.53;;
20014;SDS011;61787;42.022;23.078;2022-07-17T02:09:50;5.15;;;4.55;;
20014;SDS011;61787;42.022;23.078;2022-07-17T02:10:51;5.47;;;4.65;;
20014;SDS011;61787;42.022;23.078;2022-07-17T02:11:53;5.85;;;5.18;;
20014;SDS011;61787;42.022;23.078;2022-07-17T02:12:55;5.50;;;4.60;;
20014;SDS011;61787;42.022;23.078;2022-07-17T02:13:59;6.80;;;4.63;;
20014;SDS011;61787;42.022;23.078;2022-07-17T02:15:01;6.55;;;4.63;;
20014;SDS011;61787;42.022;23.078;2022-07-17T02:16:04;4.78;;;4.28;;
20014;SDS011;61787;42.022;23.078;2022-07-17T02:17:06;6.82;;;4.65;;
20014;SDS011;61787;42.022;23.078;2022-07-17T02:18:08;5.78;;;5.15;;
20014;SDS011;61787;42.022;23.078;2022-07-17T02:19:09;6.25;;;4.95;;
20014;SDS011;61787;42.022;23.078;2022-07-17T02:20:12;9.95;;;5.57;;
20014;SDS011;61787;42.022;23.078;2022-07-17T02:21:14;6.50;;;5.15;;
20014;SDS011;61787;42.022;23.078;2022-07-17T02:22:15;6.88;;;5.95;;
20014;SDS011;61787;42.022;23.078;2022-07-17T02:23:17;6.53;;;5.30;;
20014;SDS011;61787;42.022;23.078;2022-07-17T02:24:19;6.55;;;5.65;;
20014;SDS011;61787;42.022;23.078;2022-07-17T02:25:21;6.45;;;5.80;;
20014;SDS011;61787;42.022;23.078;2022-07-17T02:26:23;8.77;;;5.75;;
20014;SDS011;61787;42.022;23.078;2022-07-17T02:27:25;7.28;;;5.45;;
20014;SDS011;61787;42.022;23.078;2022-07-17T02:28:27;6.00;;;5.25;;
20014;SDS011;61787;42.022;23.078;2022-07-17T02:29:29;7.20;;;5.72;;
20014;SDS011;61787;42.022;23.078;2022-07-17T02:30:30;6.85;;;5.45;;
20014;SDS011;61787;42.022;23.078;2022-07-17T02:31:32;6.90;;;5.47;;
20014;SDS011;61787;42.022;23.078;2022-07-17T02:32:34;6.72;;;5.20;;
20014;SDS011;61787;42.022;23.078;2022-07-17T02:33:35;5.55;;;5.05;;
20014;SDS011;61787;42.022;23.078;2022-07-17T02:34:37;5.63;;;4.70;;
20014;SDS011;61787;42.022;23.078;2022-07-17T02:35:39;5.30;;;4.80;;
20014;SDS011;61787;42.022;23.078;2022-07-17T02:36:41;5.30;;;4.40;;
20014;SDS011;61787;42.022;23.078;2022-07-17T02:37:43;7.53;;;5.18;;
20014;SDS011;61787;42.022;23.078;2022-07-17T02:38:44;5.70;;;4.95;;
20014;SDS011;61787;42.022;23.078;2022-07-17T02:39:46;7.22;;;5.50;;
20014;SDS011;61787;42.022;23.078;2022-07-17T02:40:54;5.60;;;5.05;;
20014;SDS011;61787;42.022;23.078;2022-07-17T02:41:55;5.72;;;5.00;;
20014;SDS011;61787;42.022;23.078;2022-07-17T02:42:57;5.57;;;5.00;;
20014;SDS011;61787;42.022;23.078;2022-07-17T02:43:59;5.63;;;5.10;;
20014;SDS011;61787;42.022;23.078;2022-07-17T02:45:00;6.07;;;5.35;;
20014;SDS011;61787;42.022;23.078;2022-07-17T02:46:02;5.80;;;5.30;;
20014;SDS011;61787;42.022;23.078;2022-07-17T02:47:04;5.40;;;4.63;;
20014;SDS011;61787;42.022;23.078;2022-07-17T02:48:06;7.28;;;5.03;;
20014;SDS011;61787;42.022;23.078;2022-07-17T02:49:07;5.72;;;4.70;;
20014;SDS011;61787;42.022;23.078;2022-07-17T02:50:09;6.82;;;4.75;;
20014;SDS011;61787;42.022;23.078;2022-07-17T02:51:11;6.15;;;4.80;;
20014;SDS011;61787;42.022;23.078;2022-07-17T02:52:13;6.88;;;4.65;;
20014;SDS011;61787;42.022;23.078;2022-07-17T02:53:14;5.40;;;4.90;;
20014;SDS011;61787;42.022;23.078;2022-07-17T02:54:16;5.80;;;4.60;;
20014;SDS011;61787;42.022;23.078;2022-07-17T02:55:18;5.70;;;5.30;;
20014;SDS011;61787;42.022;23.078;2022-07-17T02:56:20;5.05;;;4.50;;
20014;SDS011;61787;42.022;23.078;2022-07-17T02:57:21;8.50;;;5.32;;
20014;SDS011;61787;42.022;23.078;2022-07-17T02:58:23;6.18;;;5.43;;
20014;SDS011;61787;42.022;23.078;2022-07-17T02:59:25;5.22;;;4.45;;
20014;SDS011;61787;42.022;23.078;2022-07-17T03:00:26;6.45;;;4.85;;
20014;SDS011;61787;42.022;23.078;2022-07-17T03:01:28;5.43;;;4.72;;
20014;SDS011;61787;42.022;23.078;2022-07-17T03:02:30;5.13;;;4.53;;
20014;SDS011;61787;42.022;23.078;2022-07-17T03:03:32;8.48;;;4.85;;
20014;SDS011;61787;42.022;23.078;2022-07-17T03:04:34;5.88;;;4.72;;
20014;SDS011;61787;42.022;23.078;2022-07-17T03:05:35;5.57;;;4.88;;
20014;SDS011;61787;42.022;23.078;2022-07-17T03:06:37;5.63;;;5.10;;
20014;SDS011;61787;42.022;23.078;2022-07-17T03:07:39;7.28;;;4.55;;
20014;SDS011;61787;42.022;23.078;2022-07-17T03:08:41;7.47;;;4.88;;
20014;SDS011;61787;42.022;23.078;2022-07-17T03:09:42;6.03;;;4.80;;
20014;SDS011;61787;42.022;23.078;2022-07-17T03:10:44;7.82;;;4.97;;
20014;SDS011;61787;42.022;23.078;2022-07-17T03:11:46;6.47;;;5.40;;
20014;SDS011;61787;42.022;23.078;2022-07-17T03:12:47;5.30;;;4.68;;
20014;SDS011;61787;42.022;23.078;2022-07-17T03:13:49;5.82;;;4.75;;
20014;SDS011;61787;42.022;23.078;2022-07-17T03:14:51;5.68;;;4.72;;
20014;SDS011;61787;42.022;23.078;2022-07-17T03:15:52;6.18;;;4.90;;
20014;SDS011;61787;42.022;23.078;2022-07-17T03:16:54;5.43;;;4.80;;
20014;SDS011;61787;42.022;23.078;2022-07-17T03:17:57;5.80;;;4.70;;
20014;SDS011;61787;42.022;23.078;2022-07-17T03:18:59;5.78;;;4.93;;
20014;SDS011;61787;42.022;23.078;2022-07-17T03:20:00;6.10;;;4.97;;
20014;SDS011;61787;42.022;23.078;2022-07-17T03:21:02;8.07;;;5.47;;
20014;SDS011;61787;42.022;23.078;2022-07-17T03:22:04;6.20;;;4.78;;
20014;SDS011;61787;42.022;23.078;2022-07-17T03:23:06;7.20;;;4.82;;
20014;SDS011;61787;42.022;23.078;2022-07-17T03:24:08;5.32;;;4.80;;
20014;SDS011;61787;42.022;23.078;2022-07-17T03:25:09;7.78;;;5.85;;
20014;SDS011;61787;42.022;23.078;2022-07-17T03:26:11;7.43;;;5.47;;
20014;SDS011;61787;42.022;23.078;2022-07-17T03:27:13;9.90;;;5.25;;
20014;SDS011;61787;42.022;23.078;2022-07-17T03:28:14;5.15;;;4.75;;
20014;SDS011;61787;42.022;23.078;2022-07-17T03:29:16;5.55;;;4.88;;
20014;SDS011;61787;42.022;23.078;2022-07-17T03:30:18;9.50;;;5.05;;
20014;SDS011;61787;42.022;23.078;2022-07-17T03:31:20;5.70;;;5.03;;
20014;SDS011;61787;42.022;23.078;2022-07-17T03:32:22;6.28;;;5.20;;
20014;SDS011;61787;42.022;23.078;2022-07-17T03:33:24;7.47;;;5.22;;
20014;SDS011;61787;42.022;23.078;2022-07-17T03:34:26;7.32;;;5.65;;
20014;SDS011;61787;42.022;23.078;2022-07-17T03:35:27;6.43;;;5.13;;
20014;SDS011;61787;42.022;23.078;2022-07-17T03:36:29;18.00;;;6.38;;
20014;SDS011;61787;42.022;23.078;2022-07-17T03:37:31;15.45;;;6.20;;
20014;SDS011;61787;42.022;23.078;2022-07-17T03:38:32;10.82;;;5.72;;
20014;SDS011;61787;42.022;23.078;2022-07-17T03:39:34;11.07;;;5.80;;
20014;SDS011;61787;42.022;23.078;2022-07-17T03:40:36;8.85;;;5.68;;
20014;SDS011;61787;42.022;23.078;2022-07-17T03:41:38;14.23;;;6.47;;
20014;SDS011;61787;42.022;23.078;2022-07-17T03:42:40;8.32;;;5.57;;
20014;SDS011;61787;42.022;23.078;2022-07-17T03:43:41;9.23;;;6.32;;
20014;SDS011;61787;42.022;23.078;2022-07-17T03:44:43;7.80;;;6.25;;
20014;SDS011;61787;42.022;23.078;2022-07-17T03:45:45;6.88;;;6.18;;
20014;SDS011;61787;42.022;23.078;2022-07-17T03:46:47;6.13;;;5.53;;
20014;SDS011;61787;42.022;23.078;2022-07-17T03:47:49;6.72;;;5.35;;
20014;SDS011;61787;42.022;23.078;2022-07-17T03:48:51;6.85;;;5.88;;
20014;SDS011;61787;42.022;23.078;2022-07-17T03:49:53;9.13;;;5.72;;
20014;SDS011;61787;42.022;23.078;2022-07-17T03:50:55;7.20;;;6.05;;
20014;SDS011;61787;42.022;23.078;2022-07-17T03:51:57;6.50;;;5.03;;
20014;SDS011;61787;42.022;23.078;2022-07-17T03:52:58;7.22;;;5.20;;
20014;SDS011;61787;42.022;23.078;2022-07-17T03:54:00;5.97;;;5.15;;
20014;SDS011;61787;42.022;23.078;2022-07-17T03:55:02;6.43;;;5.65;;
20014;SDS011;61787;42.022;23.078;2022-07-17T03:56:04;8.30;;;5.47;;
20014;SDS011;61787;42.022;23.078;2022-07-17T03:57:06;5.90;;;5.18;;
20014;SDS011;61787;42.022;23.078;2022-07-17T03:58:07;6.57;;;5.32;;
20014;SDS011;61787;42.022;23.078;2022-07-17T03:59:09;6.25;;;5.13;;
20014;SDS011;61787;42.022;23.078;2022-07-17T04:00:11;6.68;;;4.95;;
20014;SDS011;61787;42.022;23.078;2022-07-17T04:01:12;6.20;;;5.15;;
20014;SDS011;61787;42.022;23.078;2022-07-17T04:02:14;5.03;;;4.63;;
20014;SDS011;61787;42.022;23.078;2022-07-17T04:03:16;5.68;;;4.70;;
20014;SDS011;61787;42.022;23.078;2022-07-17T04:04:18;4.82;;;4.25;;
20014;SDS011;61787;42.022;23.078;2022-07-17T04:05:19;6.95;;;4.40;;
20014;SDS011;61787;42.022;23.078;2022-07-17T04:06:21;7.78;;;4.55;;
20014;SDS011;61787;42.022;23.078;2022-07-17T04:07:23;6.95;;;5.05;;
20014;SDS011;61787;42.022;23.078;2022-07-17T04:08:32;5.63;;;4.90;;
20014;SDS011;61787;42.022;23.078;2022-07-17T04:09:33;6.90;;;4.75;;
20014;SDS011;61787;42.022;23.078;2022-07-17T04:10:35;7.65;;;5.28;;
20014;SDS011;61787;42.022;23.078;2022-07-17T04:11:38;6.70;;;5.07;;
20014;SDS011;61787;42.022;23.078;2022-07-17T04:12:39;8.82;;;5.65;;
20014;SDS011;61787;42.022;23.078;2022-07-17T04:13:42;6.18;;;5.45;;
20014;SDS011;61787;42.022;23.078;2022-07-17T04:14:44;7.85;;;5.32;;
20014;SDS011;61787;42.022;23.078;2022-07-17T04:15:45;7.38;;;4.88;;
20014;SDS011;61787;42.022;23.078;2022-07-17T04:16:50;7.72;;;5.60;;
20014;SDS011;61787;42.022;23.078;2022-07-17T04:17:52;14.13;;;6.07;;
20014;SDS011;61787;42.022;23.078;2022-07-17T04:18:53;7.28;;;5.38;;
20014;SDS011;61787;42.022;23.078;2022-07-17T04:19:55;10.00;;;5.68;;
20014;SDS011;61787;42.022;23.078;2022-07-17T04:21:01;9.45;;;5.28;;
20014;SDS011;61787;42.022;23.078;2022-07-17T04:22:05;7.82;;;5.60;;
20014;SDS011;61787;42.022;23.078;2022-07-17T04:23:06;5.82;;;5.22;;
20014;SDS011;61787;42.022;23.078;2022-07-17T04:24:08;6.57;;;5.57;;
20014;SDS011;61787;42.022;23.078;2022-07-17T04:25:10;7.53;;;5.45;;
20014;SDS011;61787;42.022;23.078;2022-07-17T04:26:11;7.53;;;5.82;;
20014;SDS011;61787;42.022;23.078;2022-07-17T04:27:13;7.22;;;5.32;;
20014;SDS011;61787;42.022;23.078;2022-07-17T04:28:15;7.50;;;5.60;;
20014;SDS011;61787;42.022;23.078;2022-07-17T04:29:18;5.93;;;5.25;;
20014;SDS011;61787;42.022;23.078;2022-07-17T04:30:19;5.93;;;5.22;;
20014;SDS011;61787;42.022;23.078;2022-07-17T04:31:21;6.30;;;5.65;;
20014;SDS011;61787;42.022;23.078;2022-07-17T04:32:23;6.43;;;4.80;;
20014;SDS011;61787;42.022;23.078;2022-07-17T04:33:24;5.70;;;5.18;;
20014;SDS011;61787;42.022;23.078;2022-07-17T04:34:27;8.75;;;4.75;;
20014;SDS011;61787;42.022;23.078;2022-07-17T04:35:29;6.63;;;5.10;;
20014;SDS011;61787;42.022;23.078;2022-07-17T04:36:31;5.07;;;4.68;;
20014;SDS011;61787;42.022;23.078;2022-07-17T04:37:33;6.25;;;4.70;;
20014;SDS011;61787;42.022;23.078;2022-07-17T04:38:34;6.85;;;4.68;;
20014;SDS011;61787;42.022;23.078;2022-07-17T04:39:36;4.75;;;4.00;;
20014;SDS011;61787;42.022;23.078;2022-07-17T04:40:38;5.50;;;4.50;;
20014;SDS011;61787;42.022;23.078;2022-07-17T04:41:40;4.65;;;4.25;;
20014;SDS011;61787;42.022;23.078;2022-07-17T04:42:42;5.22;;;4.72;;
20014;SDS011;61787;42.022;23.078;2022-07-17T04:43:44;5.80;;;4.03;;
20014;SDS011;61787;42.022;23.078;2022-07-17T04:44:45;4.47;;;3.92;;
20014;SDS011;61787;42.022;23.078;2022-07-17T04:45:47;10.90;;;4.22;;
20014;SDS011;61787;42.022;23.078;2022-07-17T04:46:49;4.25;;;3.85;;
20014;SDS011;61787;42.022;23.078;2022-07-17T04:47:50;5.65;;;4.20;;
20014;SDS011;61787;42.022;23.078;2022-07-17T04:48:52;6.57;;;4.30;;
20014;SDS011;61787;42.022;23.078;2022-07-17T04:49:54;8.40;;;4.57;;
20014;SDS011;61787;42.022;23.078;2022-07-17T04:50:56;8.38;;;5.22;;
20014;SDS011;61787;42.022;23.078;2022-07-17T04:51:57;7.95;;;5.07;;
20014;SDS011;61787;42.022;23.078;2022-07-17T04:52:59;8.48;;;5.82;;
20014;SDS011;61787;42.022;23.078;2022-07-17T04:54:02;5.75;;;5.15;;
20014;SDS011;61787;42.022;23.078;2022-07-17T04:55:03;7.82;;;5.40;;
20014;SDS011;61787;42.022;23.078;2022-07-17T04:56:05;7.93;;;5.28;;
20014;SDS011;61787;42.022;23.078;2022-07-17T04:57:07;7.70;;;5.15;;
20014;SDS011;61787;42.022;23.078;2022-07-17T04:58:09;5.68;;;5.10;;
20014;SDS011;61787;42.022;23.078;2022-07-17T04:59:10;5.93;;;5.38;;
20014;SDS011;61787;42.022;23.078;2022-07-17T05:00:12;7.00;;;5.47;;
20014;SDS011;61787;42.022;23.078;2022-07-17T05:01:16;5.85;;;4.93;;
20014;SDS011;61787;42.022;23.078;2022-07-17T05:02:18;10.32;;;5.07;;
20014;SDS011;61787;42.022;23.078;2022-07-17T05:03:19;9.48;;;5.80;;
20014;SDS011;61787;42.022;23.078;2022-07-17T05:04:21;7.28;;;5.53;;
20014;SDS011;61787;42.022;23.078;2022-07-17T05:05:28;8.35;;;6.30;;
20014;SDS011;61787;42.022;23.078;2022-07-17T05:06:30;8.32;;;5.20;;
20014;SDS011;61787;42.022;23.078;2022-07-17T05:07:31;8.80;;;5.32;;
20014;SDS011;61787;42.022;23.078;2022-07-17T05:08:34;8.18;;;5.25;;
20014;SDS011;61787;42.022;23.078;2022-07-17T05:09:36;6.35;;;5.38;;
20014;SDS011;61787;42.022;23.078;2022-07-17T05:10:37;7.40;;;5.35;;
20014;SDS011;61787;42.022;23.078;2022-07-17T05:11:39;9.73;;;5.63;;
20014;SDS011;61787;42.022;23.078;2022-07-17T05:12:41;9.23;;;5.60;;
20014;SDS011;61787;42.022;23.078;2022-07-17T05:13:42;7.60;;;5.90;;
20014;SDS011;61787;42.022;23.078;2022-07-17T05:14:44;6.65;;;5.93;;
20014;SDS011;61787;42.022;23.078;2022-07-17T05:15:46;8.48;;;5.90;;
20014;SDS011;61787;42.022;23.078;2022-07-17T05:16:48;6.47;;;5.88;;
20014;SDS011;61787;42.022;23.078;2022-07-17T05:17:49;9.18;;;6.30;;
20014;SDS011;61787;42.022;23.078;2022-07-17T05:18:51;11.07;;;6.47;;
20014;SDS011;61787;42.022;23.078;2022-07-17T05:19:53;7.57;;;6.07;;
20014;SDS011;61787;42.022;23.078;2022-07-17T05:20:54;8.30;;;6.50;;
20014;SDS011;61787;42.022;23.078;2022-07-17T05:21:56;9.73;;;6.90;;
20014;SDS011;61787;42.022;23.078;2022-07-17T05:22:58;7.50;;;6.75;;
20014;SDS011;61787;42.022;23.078;2022-07-17T05:23:59;7.68;;;6.95;;
20014;SDS011;61787;42.022;23.078;2022-07-17T05:25:01;9.90;;;7.20;;
20014;SDS011;61787;42.022;23.078;2022-07-17T05:26:03;10.75;;;6.72;;
20014;SDS011;61787;42.022;23.078;2022-07-17T05:27:04;7.90;;;7.15;;
20014;SDS011;61787;42.022;23.078;2022-07-17T05:28:06;8.48;;;7.32;;
20014;SDS011;61787;42.022;23.078;2022-07-17T05:29:08;8.23;;;6.43;;
20014;SDS011;61787;42.022;23.078;2022-07-17T05:30:09;7.57;;;6.68;;
20014;SDS011;61787;42.022;23.078;2022-07-17T05:31:11;9.93;;;6.97;;
20014;SDS011;61787;42.022;23.078;2022-07-17T05:32:13;8.60;;;6.32;;
20014;SDS011;61787;42.022;23.078;2022-07-17T05:33:14;10.98;;;6.78;;
20014;SDS011;61787;42.022;23.078;2022-07-17T05:34:16;7.80;;;6.07;;
20014;SDS011;61787;42.022;23.078;2022-07-17T05:35:17;9.23;;;6.30;;
20014;SDS011;61787;42.022;23.078;2022-07-17T05:36:19;9.18;;;6.22;;
20014;SDS011;61787;42.022;23.078;2022-07-17T05:37:21;9.10;;;6.43;;
20014;SDS011;61787;42.022;23.078;2022-07-17T05:38:22;11.55;;;6.05;;
20014;SDS011;61787;42.022;23.078;2022-07-17T05:39:24;7.10;;;6.40;;
20014;SDS011;61787;42.022;23.078;2022-07-17T05:40:26;7.15;;;6.40;;
20014;SDS011;61787;42.022;23.078;2022-07-17T05:41:28;8.57;;;5.97;;
20014;SDS011;61787;42.022;23.078;2022-07-17T05:42:30;9.55;;;6.05;;
20014;SDS011;61787;42.022;23.078;2022-07-17T05:43:36;7.85;;;6.15;;
20014;SDS011;61787;42.022;23.078;2022-07-17T05:44:37;8.15;;;6.07;;
20014;SDS011;61787;42.022;23.078;2022-07-17T05:45:39;11.45;;;6.97;;
20014;SDS011;61787;42.022;23.078;2022-07-17T05:46:41;10.20;;;6.85;;
20014;SDS011;61787;42.022;23.078;2022-07-17T05:47:43;9.90;;;6.38;;
20014;SDS011;61787;42.022;23.078;2022-07-17T05:48:44;9.43;;;6.18;;
20014;SDS011;61787;42.022;23.078;2022-07-17T05:49:46;7.22;;;5.55;;
20014;SDS011;61787;42.022;23.078;2022-07-17T05:50:48;7.72;;;5.75;;
20014;SDS011;61787;42.022;23.078;2022-07-17T05:51:49;5.65;;;4.65;;
20014;SDS011;61787;42.022;23.078;2022-07-17T05:52:51;8.15;;;5.55;;
20014;SDS011;61787;42.022;23.078;2022-07-17T05:53:53;12.93;;;5.57;;
20014;SDS011;61787;42.022;23.078;2022-07-17T05:54:54;8.95;;;5.25;;
20014;SDS011;61787;42.022;23.078;2022-07-17T05:55:57;9.77;;;5.20;;
20014;SDS011;61787;42.022;23.078;2022-07-17T05:56:59;10.32;;;5.63;;
20014;SDS011;61787;42.022;23.078;2022-07-17T05:58:10;6.70;;;4.88;;
20014;SDS011;61787;42.022;23.078;2022-07-17T05:59:12;8.40;;;5.28;;
20014;SDS011;61787;42.022;23.078;2022-07-17T06:00:13;13.77;;;5.47;;
20014;SDS011;61787;42.022;23.078;2022-07-17T06:01:15;12.50;;;5.05;;
20014;SDS011;61787;42.022;23.078;2022-07-17T06:02:17;12.05;;;5.10;;
20014;SDS011;61787;42.022;23.078;2022-07-17T06:03:19;7.15;;;5.05;;
20014;SDS011;61787;42.022;23.078;2022-07-17T06:04:21;7.22;;;4.90;;
20014;SDS011;61787;42.022;23.078;2022-07-17T06:05:23;7.32;;;5.15;;
20014;SDS011;61787;42.022;23.078;2022-07-17T06:06:25;4.80;;;4.20;;
20014;SDS011;61787;42.022;23.078;2022-07-17T06:07:26;8.50;;;4.45;;
20014;SDS011;61787;42.022;23.078;2022-07-17T06:08:28;11.75;;;4.50;;